createdAt,value
2019-05-18T00:00:41.664Z,28.47
2019-05-18T00:03:10.146Z,25.72
2019-05-18T00:05:38.746Z,27.05
2019-05-18T00:08:07.234Z,31.17
2019-05-18T00:10:35.713Z,27.60
2019-05-18T00:13:04.216Z,24.45
2019-05-18T00:15:32.702Z,23.67
2019-05-18T00:18:01.195Z,28.42
2019-05-18T00:20:29.675Z,26.55
2019-05-18T00:22:58.162Z,25.65
2019-05-18T00:25:26.641Z,23.25
2019-05-18T00:27:55.127Z,21.50
2019-05-18T00:30:23.606Z,21.17
2019-05-18T00:32:52.092Z,23.45
2019-05-18T00:35:20.581Z,22.48
2019-05-18T00:37:49.069Z,20.00
2019-05-18T00:40:17.561Z,20.08
2019-05-18T00:42:46.066Z,16.75
2019-05-18T00:45:14.535Z,19.20
2019-05-18T00:47:43.024Z,17.35
2019-05-18T00:50:11.511Z,18.60
2019-05-18T00:52:39.992Z,18.85
2019-05-18T00:55:11.435Z,17.25
2019-05-18T00:57:39.917Z,22.70
2019-05-18T01:00:08.707Z,15.55
2019-05-18T01:02:37.187Z,14.15
2019-05-18T01:05:06.273Z,12.10
2019-05-18T01:07:34.757Z,13.32
2019-05-18T01:10:03.448Z,15.20
2019-05-18T01:12:31.934Z,14.65
2019-05-18T01:15:00.423Z,15.03
2019-05-18T01:17:28.907Z,13.43
2019-05-18T01:19:57.382Z,11.48
2019-05-18T01:22:25.860Z,13.90
2019-05-18T01:24:54.342Z,11.78
2019-05-18T01:27:22.823Z,10.48
2019-05-18T01:29:51.305Z,11.33
2019-05-18T01:32:19.789Z,13.53
2019-05-18T01:34:48.343Z,13.13
2019-05-18T01:37:16.819Z,10.75
2019-05-18T01:39:45.297Z,12.53
2019-05-18T01:42:13.783Z,9.85
2019-05-18T01:44:42.263Z,9.75
2019-05-18T01:47:10.748Z,10.72
2019-05-18T01:49:39.260Z,15.55
2019-05-18T01:52:07.799Z,16.67
2019-05-18T01:54:36.279Z,18.27
2019-05-18T01:57:04.819Z,17.35
2019-05-18T01:59:33.323Z,15.32
2019-05-18T02:02:01.809Z,16.05
2019-05-18T02:04:30.286Z,14.07
2019-05-18T02:06:58.774Z,13.60
2019-05-18T02:09:27.253Z,12.33
2019-05-18T02:11:55.734Z,10.15
2019-05-18T02:14:24.211Z,12.82
2019-05-18T02:16:52.695Z,14.68
2019-05-18T02:19:21.173Z,13.53
2019-05-18T02:21:49.657Z,11.83
2019-05-18T02:24:18.132Z,12.47
2019-05-18T02:26:46.614Z,11.12
2019-05-18T02:29:15.089Z,12.58
2019-05-18T02:31:43.592Z,11.53
2019-05-18T02:34:12.052Z,11.25
2019-05-18T02:36:40.539Z,11.22
2019-05-18T02:39:09.632Z,11.53
2019-05-18T02:41:38.112Z,12.78
2019-05-18T02:44:06.799Z,10.75
2019-05-18T02:46:35.291Z,12.78
2019-05-18T02:49:03.770Z,15.78
2019-05-18T02:51:32.257Z,14.15
2019-05-18T02:54:00.744Z,13.50
2019-05-18T02:56:29.226Z,12.18
2019-05-18T02:58:57.706Z,10.98
2019-05-18T03:01:26.492Z,12.13
2019-05-18T03:03:54.998Z,11.55
2019-05-18T03:06:23.494Z,12.07
2019-05-18T03:08:51.971Z,11.43
2019-05-18T03:11:20.439Z,13.65
2019-05-18T03:13:48.934Z,13.95
2019-05-18T03:16:17.413Z,15.95
2019-05-18T03:18:45.910Z,13.22
2019-05-18T03:21:14.397Z,16.17
2019-05-18T03:23:42.890Z,17.17
2019-05-18T03:26:11.369Z,18.35
2019-05-18T03:28:39.885Z,16.20
2019-05-18T03:31:08.372Z,14.25
2019-05-18T03:33:36.870Z,16.57
2019-05-18T03:36:05.345Z,17.15
2019-05-18T03:38:33.863Z,20.08
2019-05-18T03:41:02.348Z,36.83
2019-05-18T03:43:30.830Z,74.27
2019-05-18T03:45:59.322Z,36.03
2019-05-18T03:48:27.800Z,116.88
2019-05-18T03:50:56.297Z,288.80
2019-05-18T03:53:24.783Z,292.98
2019-05-18T03:55:53.263Z,263.07
2019-05-18T03:58:21.759Z,202.80
2019-05-18T04:00:50.232Z,106.17
2019-05-18T04:03:18.713Z,164.28
2019-05-18T04:05:47.211Z,173.93
2019-05-18T04:08:15.695Z,238.70
2019-05-18T04:10:44.180Z,385.43
2019-05-18T04:13:12.665Z,131.82
2019-05-18T04:15:41.164Z,205.18
2019-05-18T04:18:09.640Z,226.15
2019-05-18T04:20:38.146Z,146.82
2019-05-18T04:23:06.609Z,61.75
2019-05-18T04:25:35.099Z,80.60
2019-05-18T04:28:03.576Z,207.62
2019-05-18T04:30:32.081Z,374.20
2019-05-18T04:33:00.576Z,219.22
2019-05-18T04:35:29.056Z,39.15
2019-05-18T04:37:57.732Z,65.05
2019-05-18T04:40:26.230Z,181.25
2019-05-18T04:42:54.710Z,164.67
2019-05-18T04:45:23.204Z,192.72
2019-05-18T04:47:51.685Z,89.62
2019-05-18T04:50:20.176Z,131.40
2019-05-18T04:52:48.668Z,279.35
2019-05-18T04:55:17.155Z,60.00
2019-05-18T04:57:45.646Z,112.28
2019-05-18T05:00:14.133Z,81.80
2019-05-18T05:02:42.624Z,118.22
2019-05-18T05:05:11.106Z,173.87
2019-05-18T05:07:39.598Z,37.15
2019-05-18T05:10:08.686Z,153.57
2019-05-18T05:12:37.174Z,52.20
2019-05-18T05:15:05.644Z,48.23
2019-05-18T05:17:34.133Z,34.15
2019-05-18T05:20:02.920Z,54.48
2019-05-18T05:22:31.448Z,42.03
2019-05-18T05:24:59.934Z,73.67
2019-05-18T05:27:28.412Z,37.95
2019-05-18T05:29:56.905Z,38.67
2019-05-18T05:32:25.371Z,38.38
2019-05-18T05:34:53.854Z,30.85
2019-05-18T05:37:22.350Z,26.00
2019-05-18T05:39:50.834Z,26.05
2019-05-18T05:42:19.323Z,23.62
2019-05-18T05:44:47.818Z,28.38
2019-05-18T05:47:16.298Z,42.20
2019-05-18T05:49:44.811Z,37.65
2019-05-18T05:52:13.283Z,34.15
2019-05-18T05:54:42.085Z,38.63
2019-05-18T05:57:10.564Z,33.08
2019-05-18T05:59:39.050Z,32.90
2019-05-18T06:02:07.534Z,30.72
2019-05-18T06:04:36.014Z,30.90
2019-05-18T06:07:04.504Z,27.58
2019-05-18T06:09:33.038Z,28.00
2019-05-18T06:12:01.523Z,41.05
2019-05-18T06:14:30.000Z,36.30
2019-05-18T06:16:58.485Z,36.93
2019-05-18T06:19:26.974Z,41.25
2019-05-18T06:21:55.451Z,45.25
2019-05-18T06:24:23.929Z,43.95
2019-05-18T06:26:52.417Z,38.67
2019-05-18T06:29:20.900Z,41.98
2019-05-18T06:31:49.388Z,41.33
2019-05-18T06:34:17.867Z,41.90
2019-05-18T06:36:46.343Z,43.65
2019-05-18T06:39:14.820Z,39.67
2019-05-18T06:41:43.342Z,38.88
2019-05-18T06:44:11.821Z,45.52
2019-05-18T06:46:40.296Z,42.43
2019-05-18T06:49:15.446Z,44.65
2019-05-18T06:51:43.905Z,41.42
2019-05-18T06:54:12.391Z,43.52
2019-05-18T06:56:40.881Z,49.35
2019-05-18T06:59:09.369Z,51.58
2019-05-18T07:01:37.838Z,49.15
2019-05-18T07:04:06.326Z,47.05
2019-05-18T07:06:34.825Z,39.10
2019-05-18T07:09:04.879Z,41.10
2019-05-18T07:11:33.363Z,44.33
2019-05-18T07:14:01.877Z,37.42
2019-05-18T07:16:30.353Z,42.45
2019-05-18T07:18:58.835Z,43.58
2019-05-18T07:21:27.334Z,41.05
2019-05-18T07:23:55.802Z,47.13
2019-05-18T07:26:24.493Z,40.25
2019-05-18T07:28:52.981Z,33.40
2019-05-18T07:31:21.471Z,40.60
2019-05-18T07:33:50.159Z,38.95
2019-05-18T07:36:18.645Z,36.63
2019-05-18T07:38:47.136Z,36.35
2019-05-18T07:41:15.624Z,35.03
2019-05-18T07:43:44.105Z,43.90
2019-05-18T07:46:12.589Z,35.33
2019-05-18T07:48:41.067Z,34.33
2019-05-18T07:51:09.557Z,33.60
2019-05-18T07:53:38.031Z,39.03
2019-05-18T07:56:06.516Z,33.80
2019-05-18T07:58:35.018Z,40.08
2019-05-18T08:01:03.515Z,36.58
2019-05-18T08:03:31.989Z,33.48
2019-05-18T08:06:00.483Z,32.50
2019-05-18T08:08:28.962Z,44.50
2019-05-18T08:10:57.445Z,35.68
2019-05-18T08:13:25.931Z,36.65
2019-05-18T08:15:54.419Z,40.48
2019-05-18T08:18:22.905Z,38.15
2019-05-18T08:20:51.403Z,46.75
2019-05-18T08:23:19.906Z,37.67
2019-05-18T08:25:48.384Z,39.05
2019-05-18T08:28:16.860Z,39.08
2019-05-18T08:30:45.350Z,37.53
